메인 페이지
METAR-TAF:

METAR-TAF

공항 :

Dibrugarh, 인도

위도: 27-29N, 경도: 095-01E, 고도: 110m

현재 날씨관측

예보는 9 시간 30분 전, 11:00시(UTC)에 발표되었습니다.
무풍
온도 25°C
습도 57%
기압 1014 hPa
시정: 4000m
고도 2000ft 상공 구름 조금
연무

METAR: VEMN 301100Z 00000KT 4000 HZ FEW020 25/16 Q1014 NOSIG

시각: 02:00 (20:30 UTC)

예보

예보는 3 시간 30분 전, 17:00시(UTC)에 발표되었습니다.
예보 대상 시간: 30일 18시부터 01일 03시까지 (UTC)
kt
시정: 2500m
고도 1800ft 상공 구름 조금
고도 10000ft 상공 구름 보통
박무
전환 중
01일 00시부터 01일 02시까지 (UTC)
시정: 1500m
고도 1800ft 상공 구름 보통
고도 10000ft 상공 구름 많음
박무

TAF: VEMN 301700Z 3018/0103 00000KT 2500 BR FEW018 SCT100 BECMG 0100/0102 1500 BR SCT018 BKN100

4,000개 이상의 공항 관측 자료 및 예보 (METAR 및 TAF 보고).

지도상에서 검색 가능한 기상관측소가 노란 점과 빨간 점으로 표시되어 있습니다.

기상관측소 명을 보려면 표시 위로 마우스를 이동하세요.

날씨 관측과 예보를 보려면 클릭하세요.

지도 변경 : 확대하려면 엑스 표시가 있는 녹색 버튼, 축소하려면 빼기 표시가 있는 녹색 버튼, 다음 페이지의 지도를 보려면 녹색 화살표를 클릭하세요.


METAR-TAF: